Delta Pioneer — SYIO — position and weather

sailwx.info

Track history (hours):
 
Tides and Currents Weather Stations Pressure Air Temp Water Temp Dewpoint Dewpoint Depression Visibility Wind Speed Wind Dir Waves Ship Positions

Delta Pioneer

Last reported at 2015-Jul-02 18:17 UTC. Time now 2015-Jul-02 21:26 UTC.
Position N 37°11' E 015°12'.

Length 249 m; draft 13.8 m.

Type: Ship (hazmat cat C). MMSI: 240244000.

Date/timePositionNaut miles runAvg speedWind from/ knotsBaromVisibWave heightAir tempDewpointWater temp
2015-Jul-02 18:17N 37°11' E 015°12'0 0.0
2015-Jul-02 17:17N 37°11' E 015°12'0 0.0
2015-Jul-02 16:17N 37°11' E 015°12'0 0.0
2015-Jul-02 13:14N 37°11' E 015°12'4 0.2
2015-Jul-01 13:28N 37°11' E 015°18'8 8.5
2015-Jul-01 12:33N 37°06' E 015°26'8 7.8
2015-Jul-01 11:33N 36°59' E 015°31'38 9.4
2015-Jul-01 07:33N 36°26' E 015°09'1010.4
2015-Jul-01 06:33N 36°26' E 014°56'1110.7
2015-Jul-01 05:33N 36°26' E 014°43'1110.8
2015-Jul-01 04:33N 36°27' E 014°30'1110.9
2015-Jul-01 03:33N 36°30' E 014°17'1110.9
2015-Jul-01 02:33N 36°34' E 014°04'1111.1
2015-Jul-01 01:33N 36°37' E 013°50'1111.0
2015-Jul-01 00:33N 36°40' E 013°37'1111.1
2015-Jun-30 23:33N 36°44' E 013°24'1111.2
2015-Jun-30 22:33N 36°47' E 013°11'1111.2
2015-Jun-30 21:33N 36°50' E 012°57'1111.1
2015-Jun-30 20:33N 36°53' E 012°44'1111.1
2015-Jun-30 19:33N 36°56' E 012°31'1111.0
2015-Jun-30 18:33N 36°59' E 012°18'1110.6
2015-Jun-30 17:33N 37°02' E 012°05'1110.8
2015-Jun-30 16:33N 37°05' E 011°52'1110.7
2015-Jun-30 15:33N 37°09' E 011°39'1110.8
2015-Jun-30 14:33N 37°14' E 011°28'1110.8
2015-Jun-30 13:33N 37°20' E 011°16'1111.2
2015-Jun-30 12:33N 37°24' E 011°03'1211.6
2015-Jun-30 11:33N 37°27' E 010°49'1211.7
2015-Jun-30 10:33N 37°30' E 010°35'1211.6
2015-Jun-30 09:33N 37°32' E 010°20'1211.6
2015-Jun-30 08:33N 37°34' E 010°06'1211.8
2015-Jun-30 07:33N 37°34' E 009°51'1511.6
2015-Jun-30 06:17N 37°30' E 009°33'1011.4
2015-Jun-30 05:25N 37°27' E 009°21'1011.4
2015-Jun-30 04:34N 37°24' E 009°09'3511.5
2015-Jun-30 01:28N 37°16' E 008°26'1111.2
2015-Jun-30 00:31N 37°16' E 008°12'19311.2
2015-Jun-29 07:14N 37°14' E 004°10'2211.5
2015-Jun-29 05:19N 37°15' E 003°42'911.2
2015-Jun-29 04:33N 37°14' E 003°31'1111.1
2015-Jun-29 03:33N 37°14' E 003°18'1111.1
2015-Jun-29 02:33N 37°13' E 003°04'2411.5
2015-Jun-29 00:31N 37°08' E 002°35'1011.0
2015-Jun-28 23:33N 37°06' E 002°22'1111.1
2015-Jun-28 22:33N 37°04' E 002°08'1211.0
2015-Jun-28 21:30N 37°01' E 001°54'1411.7
2015-Jun-28 20:17N 36°58' E 001°37'911.8
2015-Jun-28 19:32N 36°56' E 001°26'1110.9
2015-Jun-28 18:33N 36°55' E 001°13'1110.9
2015-Jun-28 17:32N 36°53' E 000°59'1110.9
2015-Jun-28 16:33N 36°50' E 000°46'1111.2
2015-Jun-28 15:34N 36°48' E 000°32'1111.1
2015-Jun-28 14:33N 36°46' E 000°19'1111.1
2015-Jun-28 13:34N 36°44' E 000°05'1111.2
2015-Jun-28 12:33N 36°42' W 000°09'1111.4
2015-Jun-28 11:33N 36°40' W 000°23'1411.4
2015-Jun-28 10:17N 36°36' W 000°40'7611.2
2015-Jun-28 03:29N 36°22' W 002°13'1011.1
2015-Jun-28 02:33N 36°20' W 002°26'1111.1
2015-Jun-28 01:33N 36°19' W 002°39'3411.3
2015-Jun-27 22:33N 36°14' W 003°21'9411.7
2015-Jun-27 14:33N 36°00' W 005°16'1212.4
2015-Jun-27 13:33N 35°57' W 005°30'14311.0
2015-Jun-27 00:33N 36°19' W 008°25'1611.3
2015-Jun-26 23:07N 36°23' W 008°45'611.2
2015-Jun-26 22:33N 36°24' W 008°53'1111.4
2015-Jun-26 21:33N 36°27' W 009°06'1111.5
2015-Jun-26 20:34N 36°30' W 009°20'1111.2
2015-Jun-26 19:33N 36°38' W 009°30'1111.3
2015-Jun-26 18:34N 36°47' W 009°38'1211.7
2015-Jun-26 17:33N 36°58' W 009°43'1212.0
2015-Jun-26 16:33N 37°10' W 009°45'1211.8
2015-Jun-26 15:33N 37°21' W 009°48'1211.6
2015-Jun-26 14:33N 37°33' W 009°52'1111.3
2015-Jun-26 13:33N 37°44' W 009°55'1111.3
2015-Jun-26 12:33N 37°55' W 009°58'1111.3
2015-Jun-26 11:33N 38°06' W 010°01'1111.5
2015-Jun-26 10:33N 38°17' W 010°04'1211.7
2015-Jun-26 09:33N 38°28' W 010°08'1211.5
2015-Jun-26 08:33N 38°39' W 010°12'1211.8
2015-Jun-26 07:33N 38°51' W 010°12'1311.4
2015-Jun-26 06:25N 39°04' W 010°12'1011.4
2015-Jun-26 05:33N 39°14' W 010°12'1211.6
2015-Jun-26 04:33N 39°25' W 010°12'1211.9
2015-Jun-26 03:33N 39°37' W 010°12'1211.6
2015-Jun-26 02:31N 39°49' W 010°12'1111.6
2015-Jun-26 01:33N 40°01' W 010°12'1211.7
2015-Jun-26 00:34N 40°12' W 010°12'1211.8
2015-Jun-25 23:33N 40°24' W 010°12'1212.0
2015-Jun-25 22:33N 40°36' W 010°12'  
2015-Jun-22 19:33N 51°05' E 001°29'1010.5
2015-Jun-22 18:33N 51°12' E 001°42'  
Track history (hours):
 
Tides and Currents Weather Stations Pressure Air Temp Water Temp Dewpoint Dewpoint Depression Visibility Wind Speed Wind Dir Waves Ship Positions

Delta Pioneer

Last reported at 2015-Jul-02 18:17 UTC. Time now 2015-Jul-02 21:26 UTC.
Position N 37°11' E 015°12'.

Length 249 m; draft 13.8 m.

Type: Ship (hazmat cat C). MMSI: 240244000.

Date/timePositionNaut miles runAvg speedWind from/ knotsBaromVisibWave heightAir tempDewpointWater temp
2015-Jul-02 18:17N 37°11' E 015°12'0 0.0
2015-Jul-02 17:17N 37°11' E 015°12'0 0.0
2015-Jul-02 16:17N 37°11' E 015°12'0 0.0
2015-Jul-02 13:14N 37°11' E 015°12'4 0.2
2015-Jul-01 13:28N 37°11' E 015°18'8 8.5
2015-Jul-01 12:33N 37°06' E 015°26'8 7.8
2015-Jul-01 11:33N 36°59' E 015°31'38 9.4
2015-Jul-01 07:33N 36°26' E 015°09'1010.4
2015-Jul-01 06:33N 36°26' E 014°56'1110.7
2015-Jul-01 05:33N 36°26' E 014°43'1110.8
2015-Jul-01 04:33N 36°27' E 014°30'1110.9
2015-Jul-01 03:33N 36°30' E 014°17'1110.9
2015-Jul-01 02:33N 36°34' E 014°04'1111.1
2015-Jul-01 01:33N 36°37' E 013°50'1111.0
2015-Jul-01 00:33N 36°40' E 013°37'1111.1
2015-Jun-30 23:33N 36°44' E 013°24'1111.2
2015-Jun-30 22:33N 36°47' E 013°11'1111.2
2015-Jun-30 21:33N 36°50' E 012°57'1111.1
2015-Jun-30 20:33N 36°53' E 012°44'1111.1
2015-Jun-30 19:33N 36°56' E 012°31'1111.0
2015-Jun-30 18:33N 36°59' E 012°18'1110.6
2015-Jun-30 17:33N 37°02' E 012°05'1110.8
2015-Jun-30 16:33N 37°05' E 011°52'1110.7
2015-Jun-30 15:33N 37°09' E 011°39'1110.8
2015-Jun-30 14:33N 37°14' E 011°28'1110.8
2015-Jun-30 13:33N 37°20' E 011°16'1111.2
2015-Jun-30 12:33N 37°24' E 011°03'1211.6
2015-Jun-30 11:33N 37°27' E 010°49'1211.7
2015-Jun-30 10:33N 37°30' E 010°35'1211.6
2015-Jun-30 09:33N 37°32' E 010°20'1211.6
2015-Jun-30 08:33N 37°34' E 010°06'1211.8
2015-Jun-30 07:33N 37°34' E 009°51'1511.6
2015-Jun-30 06:17N 37°30' E 009°33'1011.4
2015-Jun-30 05:25N 37°27' E 009°21'1011.4
2015-Jun-30 04:34N 37°24' E 009°09'3511.5
2015-Jun-30 01:28N 37°16' E 008°26'1111.2
2015-Jun-30 00:31N 37°16' E 008°12'19311.2
2015-Jun-29 07:14N 37°14' E 004°10'2211.5
2015-Jun-29 05:19N 37°15' E 003°42'911.2
2015-Jun-29 04:33N 37°14' E 003°31'1111.1
2015-Jun-29 03:33N 37°14' E 003°18'1111.1
2015-Jun-29 02:33N 37°13' E 003°04'2411.5
2015-Jun-29 00:31N 37°08' E 002°35'1011.0
2015-Jun-28 23:33N 37°06' E 002°22'1111.1
2015-Jun-28 22:33N 37°04' E 002°08'1211.0
2015-Jun-28 21:30N 37°01' E 001°54'1411.7
2015-Jun-28 20:17N 36°58' E 001°37'911.8
2015-Jun-28 19:32N 36°56' E 001°26'1110.9
2015-Jun-28 18:33N 36°55' E 001°13'1110.9
2015-Jun-28 17:32N 36°53' E 000°59'1110.9
2015-Jun-28 16:33N 36°50' E 000°46'1111.2
2015-Jun-28 15:34N 36°48' E 000°32'1111.1
2015-Jun-28 14:33N 36°46' E 000°19'1111.1
2015-Jun-28 13:34N 36°44' E 000°05'1111.2
2015-Jun-28 12:33N 36°42' W 000°09'1111.4
2015-Jun-28 11:33N 36°40' W 000°23'1411.4
2015-Jun-28 10:17N 36°36' W 000°40'7611.2
2015-Jun-28 03:29N 36°22' W 002°13'1011.1
2015-Jun-28 02:33N 36°20' W 002°26'1111.1
2015-Jun-28 01:33N 36°19' W 002°39'3411.3
2015-Jun-27 22:33N 36°14' W 003°21'9411.7
2015-Jun-27 14:33N 36°00' W 005°16'1212.4
2015-Jun-27 13:33N 35°57' W 005°30'14311.0
2015-Jun-27 00:33N 36°19' W 008°25'1611.3
2015-Jun-26 23:07N 36°23' W 008°45'611.2
2015-Jun-26 22:33N 36°24' W 008°53'1111.4
2015-Jun-26 21:33N 36°27' W 009°06'1111.5
2015-Jun-26 20:34N 36°30' W 009°20'1111.2
2015-Jun-26 19:33N 36°38' W 009°30'1111.3
2015-Jun-26 18:34N 36°47' W 009°38'1211.7
2015-Jun-26 17:33N 36°58' W 009°43'1212.0
2015-Jun-26 16:33N 37°10' W 009°45'1211.8
2015-Jun-26 15:33N 37°21' W 009°48'1211.6
2015-Jun-26 14:33N 37°33' W 009°52'1111.3
2015-Jun-26 13:33N 37°44' W 009°55'1111.3
2015-Jun-26 12:33N 37°55' W 009°58'1111.3
2015-Jun-26 11:33N 38°06' W 010°01'1111.5
2015-Jun-26 10:33N 38°17' W 010°04'1211.7
2015-Jun-26 09:33N 38°28' W 010°08'1211.5
2015-Jun-26 08:33N 38°39' W 010°12'1211.8
2015-Jun-26 07:33N 38°51' W 010°12'1311.4
2015-Jun-26 06:25N 39°04' W 010°12'1011.4
2015-Jun-26 05:33N 39°14' W 010°12'1211.6
2015-Jun-26 04:33N 39°25' W 010°12'1211.9
2015-Jun-26 03:33N 39°37' W 010°12'1211.6
2015-Jun-26 02:31N 39°49' W 010°12'1111.6
2015-Jun-26 01:33N 40°01' W 010°12'1211.7
2015-Jun-26 00:34N 40°12' W 010°12'1211.8
2015-Jun-25 23:33N 40°24' W 010°12'1212.0
2015-Jun-25 22:33N 40°36' W 010°12'  
2015-Jun-22 19:33N 51°05' E 001°29'1010.5
2015-Jun-22 18:33N 51°12' E 001°42'  

Dump ship's entire track history